| time (UTC) | temp F | wind direction | speed knots | gust knots | rain 1hr in | rain 24hr in | rain mn in | humidity % | barometer mb |
| 20260507180316 | 63 | 79 | 0.0 | 0.0 | 0.00 | 0.00 | 0.00 | 51 | 1020.5 |
| 20260507175811 | 63 | 43 | 0.0 | 1.7 | 0.00 | 0.00 | 0.00 | 49 | 1020.7 |
| 20260507175308 | 62 | 302 | 0.9 | 1.7 | 0.00 | 0.00 | 0.00 | 51 | 1020.8 |
| 20260507174805 | 62 | 133 | 0.0 | 0.0 | 0.00 | 0.00 | 0.00 | 51 | 1020.9 |
| 20260507174303 | 62 | 175 | 0.0 | 0.0 | 0.00 | 0.00 | 0.00 | 53 | 1021.3 |
| 20260507173801 | 61 | 188 | 0.0 | 0.0 | 0.00 | 0.00 | 0.00 | 53 | 1021.1 |
| 20260507173258 | 61 | 172 | 0.0 | 0.0 | 0.00 | 0.00 | 0.00 | 54 | 1021.4 |
| 20260507172754 | 61 | 147 | 1.7 | 2.6 | 0.00 | 0.00 | 0.00 | 53 | 1021.3 |
| 20260507172251 | 62 | 91 | 2.6 | 2.6 | 0.00 | 0.00 | 0.00 | 52 | 1021.4 |
| 20260507171746 | 63 | 71 | 0.9 | 3.5 | 0.00 | 0.00 | 0.00 | 52 | 1021.4 |
| 20260507171244 | 62 | 70 | 0.0 | 0.0 | 0.00 | 0.00 | 0.00 | 52 | 1021.4 |
| 20260507170740 | 63 | 76 | 2.6 | 3.5 | 0.00 | 0.00 | 0.00 | 50 | 1021.6 |
| 20260507170237 | 62 | 195 | 0.0 | 0.0 | 0.00 | 0.00 | 0.00 | 51 | 1021.8 |
| 20260507165733 | 60 | 252 | 0.0 | 0.0 | 0.00 | 0.00 | 0.00 | 53 | 1021.7 |
| 20260507165229 | 60 | 239 | 0.0 | 0.9 | 0.00 | 0.00 | 0.00 | 54 | 1021.9 |
| 20260507164725 | 62 | 122 | 0.0 | 0.0 | 0.00 | 0.00 | 0.00 | 52 | 1021.9 |
| 20260507164223 | 60 | 84 | 0.0 | 0.0 | 0.00 | 0.00 | 0.00 | 53 | 1022.0 |
| 20260507163720 | 61 | 221 | 0.0 | 0.0 | 0.00 | 0.00 | 0.00 | 52 | 1022.1 |
| 20260507163218 | 60 | 214 | 0.0 | 0.0 | 0.00 | 0.00 | 0.00 | 54 | 1022.3 |
| 20260507162713 | 61 | 169 | 0.0 | 0.0 | 0.00 | 0.00 | 0.00 | 52 | 1022.4 |
| 20260507162209 | 60 | 144 | 0.0 | 0.0 | 0.00 | 0.00 | 0.00 | 54 | 1022.4 |
| 20260507161706 | 60 | 47 | 0.0 | 0.0 | 0.00 | 0.00 | 0.00 | 53 | 1022.5 |
| 20260507161203 | 59 | 22 | 0.0 | 0.0 | 0.00 | 0.00 | 0.00 | 54 | 1022.6 |
| 20260507160659 | 58 | 30 | 0.0 | 0.0 | 0.00 | 0.00 | 0.00 | 55 | 1022.6 |
| 20260507160156 | 58 | 294 | 0.0 | 0.0 | 0.00 | 0.00 | 0.00 | 55 | 1022.5 |
| 20260507155651 | 58 | 295 | 0.0 | 0.0 | 0.00 | 0.00 | 0.00 | 56 | 1022.6 |
| 20260507155148 | 59 | 299 | 0.9 | 1.7 | 0.00 | 0.00 | 0.00 | 55 | 1022.7 |
| 20260507154644 | 57 | 39 | 0.0 | 0.0 | 0.00 | 0.00 | 0.00 | 57 | 1022.7 |
| 20260507154143 | 58 | 327 | 0.0 | 0.0 | 0.00 | 0.00 | 0.00 | 56 | 1022.7 |
| 20260507153639 | 57 | 331 | 0.0 | 0.0 | 0.00 | 0.00 | 0.00 | 56 | 1022.6 |
| 20260507153135 | 57 | 344 | 2.6 | 2.6 | 0.00 | 0.00 | 0.00 | 56 | 1022.8 |
| 20260507152632 | 57 | 276 | 0.0 | 0.0 | 0.00 | 0.00 | 0.00 | 56 | 1022.9 |
| 20260507152127 | 56 | 276 | 0.0 | 0.0 | 0.00 | 0.00 | 0.00 | 57 | 1022.9 |
| 20260507151624 | 56 | 332 | 0.0 | 0.0 | 0.00 | 0.00 | 0.00 | 57 | 1022.9 |
| 20260507151121 | 56 | 352 | 0.0 | 0.0 | 0.00 | 0.00 | 0.00 | 58 | 1022.9 |
| 20260507150618 | 55 | 315 | 0.0 | 0.0 | 0.00 | 0.00 | 0.00 | 58 | 1023.1 |
| 20260507150114 | 55 | 297 | 0.0 | 0.0 | 0.00 | 0.00 | 0.00 | 57 | 1023.0 |
| 20260507145609 | 56 | 288 | 0.9 | 0.9 | 0.00 | 0.00 | 0.00 | 57 | 1023.1 |
| 20260507145108 | 55 | 277 | 0.9 | 1.7 | 0.00 | 0.00 | 0.00 | 58 | 1023.2 |
| 20260507144603 | 55 | 308 | 0.0 | 0.0 | 0.00 | 0.00 | 0.00 | 59 | 1023.2 |
| 20260507144102 | 55 | 316 | 1.7 | 2.6 | 0.00 | 0.00 | 0.00 | 58 | 1023.4 |
| 20260507143558 | 54 | 329 | 3.5 | 5.2 | 0.00 | 0.00 | 0.00 | 59 | 1023.5 |
| 20260507143056 | 54 | 299 | 0.0 | 0.0 | 0.00 | 0.00 | 0.00 | 59 | 1023.4 |
| 20260507142555 | 53 | 317 | 0.0 | 0.0 | 0.00 | 0.00 | 0.00 | 60 | 1023.4 |
| 20260507142053 | 53 | 313 | 0.0 | 0.0 | 0.00 | 0.00 | 0.00 | 60 | 1023.4 |
| 20260507141549 | 53 | 317 | 0.9 | 1.7 | 0.00 | 0.00 | 0.00 | 60 | 1023.6 |
| 20260507141046 | 53 | 304 | 0.0 | 0.9 | 0.00 | 0.00 | 0.00 | 61 | 1023.2 |
| 20260507140542 | 53 | 339 | 0.9 | 2.6 | 0.00 | 0.00 | 0.00 | 61 | 1023.6 |
| 20260507140040 | 53 | 304 | 0.9 | 0.9 | 0.00 | 0.00 | 0.00 | 61 | 1023.4 |
| 20260507135537 | 53 | 320 | 0.0 | 0.0 | 0.00 | 0.00 | 0.00 | 62 | 1023.6 |
| 20260507135034 | 52 | 306 | 0.0 | 0.0 | 0.00 | 0.00 | 0.00 | 63 | 1023.4 |
| 20260507134530 | 52 | 321 | 0.0 | 0.9 | 0.00 | 0.00 | 0.00 | 63 | 1023.5 |
| 20260507134026 | 52 | 348 | 0.0 | 0.0 | 0.00 | 0.00 | 0.00 | 64 | 1023.6 |
| 20260507133523 | 52 | 289 | 0.0 | 0.0 | 0.00 | 0.00 | 0.00 | 63 | 1023.6 |
| 20260507133021 | 52 | 346 | 0.0 | 0.0 | 0.00 | 0.00 | 0.00 | 64 | 1023.4 |
| 20260507132517 | 51 | 333 | 0.0 | 0.0 | 0.00 | 0.00 | 0.00 | 64 | 1023.4 |
| 20260507132013 | 51 | 325 | 1.7 | 5.2 | 0.00 | 0.00 | 0.00 | 64 | 1023.4 |
| 20260507131510 | 51 | 319 | 0.0 | 0.9 | 0.00 | 0.00 | 0.00 | 64 | 1023.4 |
| 20260507131008 | 51 | 356 | 0.9 | 0.9 | 0.00 | 0.00 | 0.00 | 64 | 1023.4 |
| 20260507130504 | 51 | 322 | 7.0 | 9.6 | 0.00 | 0.00 | 0.00 | 64 | 1023.0 |
| 20260507130003 | 51 | 300 | 0.0 | 0.0 | 0.00 | 0.00 | 0.00 | 64 | 1023.0 |
| 20260507125501 | 51 | 328 | 0.0 | 0.9 | 0.00 | 0.00 | 0.00 | 64 | 1022.9 |
| 20260507124958 | 51 | 295 | 2.6 | 3.5 | 0.00 | 0.00 | 0.00 | 64 | 1022.8 |
| 20260507124454 | 51 | 350 | 0.0 | 0.9 | 0.00 | 0.00 | 0.00 | 64 | 1022.8 |
| 20260507123952 | 51 | 276 | 2.6 | 3.5 | 0.00 | 0.00 | 0.00 | 64 | 1022.8 |
| 20260507123450 | 51 | 1 | 6.1 | 8.7 | 0.00 | 0.00 | 0.00 | 64 | 1022.8 |
| 20260507122946 | 51 | 330 | 1.7 | 3.5 | 0.00 | 0.00 | 0.00 | 64 | 1022.8 |
| 20260507122441 | 51 | 329 | 5.2 | 7.0 | 0.00 | 0.00 | 0.00 | 64 | 1022.8 |
| 20260507121937 | 51 | 337 | 5.2 | 7.0 | 0.00 | 0.00 | 0.00 | 64 | 1022.7 |
| 20260507121433 | 51 | 307 | 0.0 | 1.7 | 0.00 | 0.00 | 0.00 | 64 | 1022.6 |
| 20260507120930 | 51 | 303 | 0.9 | 1.7 | 0.00 | 0.00 | 0.00 | 64 | 1022.6 |
| 20260507120426 | 51 | 312 | 5.2 | 8.7 | 0.00 | 0.00 | 0.00 | 64 | 1022.6 |
| 20260507115922 | 51 | 303 | 0.0 | 0.0 | 0.00 | 0.00 | 0.00 | 64 | 1022.4 |
| 20260507115419 | 51 | 301 | 0.9 | 1.7 | 0.00 | 0.00 | 0.00 | 64 | 1022.4 |
| 20260507114914 | 51 | 348 | 7.8 | 11.3 | 0.00 | 0.00 | 0.00 | 64 | 1022.6 |
| 20260507114412 | 51 | 274 | 0.0 | 1.7 | 0.00 | 0.00 | 0.00 | 64 | 1022.5 |
| 20260507113909 | 51 | 309 | 0.0 | 1.7 | 0.00 | 0.00 | 0.00 | 64 | 1022.5 |
| 20260507113406 | 51 | 335 | 5.2 | 7.8 | 0.00 | 0.00 | 0.00 | 64 | 1022.4 |
| 20260507112903 | 51 | 334 | 2.6 | 5.2 | 0.00 | 0.00 | 0.00 | 64 | 1022.6 |
| 20260507112400 | 51 | 315 | 1.7 | 5.2 | 0.00 | 0.00 | 0.00 | 64 | 1022.4 |
| 20260507111858 | 51 | 287 | 4.3 | 7.0 | 0.00 | 0.00 | 0.00 | 64 | 1022.5 |
| 20260507111354 | 51 | 286 | 5.2 | 6.1 | 0.00 | 0.00 | 0.00 | 64 | 1022.3 |
| 20260507110850 | 51 | 301 | 5.2 | 7.8 | 0.00 | 0.00 | 0.00 | 64 | 1022.1 |
| 20260507110347 | 51 | 312 | 2.6 | 3.5 | 0.00 | 0.00 | 0.00 | 64 | 1022.4 |
| 20260507105844 | 51 | 316 | 2.6 | 3.5 | 0.00 | 0.00 | 0.00 | 64 | 1022.3 |
| 20260507105340 | 51 | 320 | 2.6 | 3.5 | 0.00 | 0.00 | 0.00 | 64 | 1022.3 |
| 20260507104837 | 51 | 332 | 3.5 | 3.5 | 0.00 | 0.00 | 0.00 | 64 | 1021.8 |
| 20260507104334 | 51 | 307 | 0.9 | 2.6 | 0.00 | 0.00 | 0.00 | 65 | 1021.9 |
| 20260507103830 | 51 | 302 | 3.5 | 6.1 | 0.00 | 0.00 | 0.00 | 65 | 1022.0 |
| 20260507103327 | 51 | 339 | 0.0 | 0.9 | 0.00 | 0.00 | 0.00 | 65 | 1022.0 |
| 20260507102823 | 51 | 338 | 3.5 | 6.1 | 0.00 | 0.00 | 0.00 | 64 | 1021.8 |
| 20260507102320 | 51 | 317 | 7.8 | 11.3 | 0.00 | 0.00 | 0.00 | 64 | 1021.6 |
| 20260507101816 | 51 | 310 | 3.5 | 5.2 | 0.00 | 0.00 | 0.00 | 64 | 1021.7 |
| 20260507101316 | 51 | 325 | 1.7 | 2.6 | 0.00 | 0.00 | 0.00 | 63 | 1021.7 |
| 20260507100813 | 51 | 299 | 2.6 | 6.1 | 0.00 | 0.00 | 0.00 | 63 | 1021.5 |
| 20260507100311 | 52 | 282 | 1.7 | 2.6 | 0.00 | 0.00 | 0.00 | 63 | 1021.5 |
| 20260507095809 | 52 | 329 | 2.6 | 3.5 | 0.00 | 0.00 | 0.00 | 63 | 1021.4 |
| 20260507095306 | 52 | 271 | 3.5 | 6.1 | 0.00 | 0.00 | 0.00 | 62 | 1021.3 |
| 20260507094802 | 52 | 281 | 3.5 | 6.1 | 0.00 | 0.00 | 0.00 | 62 | 1021.3 |
| 20260507094259 | 52 | 327 | 3.5 | 7.8 | 0.00 | 0.00 | 0.00 | 62 | 1021.1 |
| 20260507093756 | 52 | 325 | 7.8 | 9.6 | 0.00 | 0.00 | 0.00 | 61 | 1021.2 |
| 20260507093255 | 53 | 286 | 0.9 | 1.7 | 0.00 | 0.00 | 0.00 | 61 | 1020.9 |
| 20260507092752 | 53 | 306 | 5.2 | 8.7 | 0.00 | 0.00 | 0.00 | 61 | 1020.8 |
| 20260507092248 | 53 | 279 | 2.6 | 6.1 | 0.00 | 0.00 | 0.00 | 60 | 1020.7 |
| 20260507091745 | 53 | 337 | 3.5 | 6.1 | 0.00 | 0.00 | 0.00 | 60 | 1020.8 |
| 20260507091241 | 53 | 319 | 3.5 | 3.5 | 0.00 | 0.00 | 0.00 | 60 | 1020.7 |
| 20260507090736 | 53 | 304 | 3.5 | 6.1 | 0.00 | 0.00 | 0.00 | 59 | 1020.6 |
| 20260507090233 | 53 | 273 | 4.3 | 6.1 | 0.00 | 0.00 | 0.00 | 59 | 1020.4 |
| 20260507085730 | 53 | 309 | 4.3 | 9.6 | 0.00 | 0.00 | 0.00 | 58 | 1020.6 |
| 20260507085227 | 53 | 281 | 0.9 | 1.7 | 0.00 | 0.00 | 0.00 | 58 | 1020.4 |
| 20260507084724 | 53 | 294 | 7.0 | 8.7 | 0.00 | 0.00 | 0.00 | 59 | 1020.3 |
| 20260507084221 | 53 | 324 | 3.5 | 6.1 | 0.00 | 0.00 | 0.00 | 58 | 1020.4 |
| 20260507083718 | 53 | 322 | 0.9 | 3.5 | 0.00 | 0.00 | 0.00 | 58 | 1020.3 |
| 20260507083215 | 53 | 305 | 1.7 | 6.1 | 0.00 | 0.00 | 0.00 | 58 | 1020.3 |
| 20260507082711 | 53 | 255 | 2.6 | 5.2 | 0.00 | 0.00 | 0.00 | 58 | 1020.3 |
| 20260507082207 | 54 | 297 | 3.5 | 5.2 | 0.00 | 0.00 | 0.00 | 58 | 1020.4 |
| 20260507081704 | 54 | 275 | 4.3 | 7.8 | 0.00 | 0.00 | 0.00 | 57 | 1020.4 |
| 20260507081200 | 54 | 302 | 6.1 | 8.7 | 0.00 | 0.00 | 0.00 | 57 | 1020.4 |
| 20260507080657 | 54 | 266 | 0.9 | 2.6 | 0.00 | 0.00 | 0.00 | 57 | 1020.3 |
| 20260507080153 | 54 | 292 | 4.3 | 8.7 | 0.00 | 0.00 | 0.00 | 57 | 1020.7 |
| 20260507075648 | 54 | 318 | 8.7 | 11.3 | 0.00 | 0.00 | 0.00 | 57 | 1020.3 |
| 20260507075144 | 54 | 299 | 6.1 | 8.7 | 0.00 | 0.00 | 0.00 | 58 | 1020.3 |
| 20260507074641 | 54 | 266 | 3.5 | 6.1 | 0.00 | 0.00 | 0.00 | 57 | 1020.4 |
| 20260507074140 | 54 | 285 | 4.3 | 7.8 | 0.00 | 0.00 | 0.00 | 58 | 1020.5 |
| 20260507073636 | 54 | 314 | 7.8 | 8.7 | 0.00 | 0.00 | 0.00 | 57 | 1020.6 |
| 20260507073132 | 54 | 335 | 2.6 | 9.6 | 0.00 | 0.00 | 0.00 | 58 | 1020.8 |
| 20260507072630 | 54 | 278 | 3.5 | 6.1 | 0.00 | 0.00 | 0.00 | 58 | 1020.9 |
| 20260507072127 | 54 | 276 | 0.9 | 1.7 | 0.00 | 0.00 | 0.00 | 58 | 1020.7 |
| 20260507071624 | 54 | 323 | 4.3 | 7.0 | 0.00 | 0.00 | 0.00 | 58 | 1020.7 |
| 20260507071120 | 54 | 267 | 0.9 | 1.7 | 0.00 | 0.00 | 0.00 | 58 | 1020.3 |
| 20260507070618 | 54 | 315 | 0.9 | 0.9 | 0.00 | 0.00 | 0.00 | 58 | 1020.0 |
| 20260507070115 | 54 | 279 | 3.5 | 5.2 | 0.00 | 0.00 | 0.00 | 58 | 1020.0 |
| 20260507065611 | 54 | 284 | 4.3 | 6.1 | 0.00 | 0.00 | 0.00 | 58 | 1019.6 |
| 20260507065108 | 55 | 325 | 8.7 | 13.0 | 0.00 | 0.00 | 0.00 | 57 | 1019.5 |
| 20260507064606 | 55 | 269 | 4.3 | 7.0 | 0.00 | 0.00 | 0.00 | 57 | 1019.3 |
| 20260507064104 | 56 | 288 | 5.2 | 8.7 | 0.00 | 0.00 | 0.00 | 56 | 1019.2 |
| 20260507063601 | 56 | 6 | 4.3 | 7.0 | 0.00 | 0.00 | 0.00 | 56 | 1018.9 |
| 20260507063059 | 56 | 301 | 2.6 | 3.5 | 0.00 | 0.00 | 0.00 | 55 | 1019.0 |
| 20260507062555 | 57 | 287 | 7.8 | 11.3 | 0.00 | 0.00 | 0.00 | 55 | 1019.1 |
| 20260507062053 | 57 | 279 | 7.8 | 12.2 | 0.00 | 0.00 | 0.00 | 54 | 1018.7 |
| 20260507061550 | 57 | 290 | 6.1 | 8.7 | 0.00 | 0.00 | 0.00 | 54 | 1018.5 |
| 20260507061048 | 57 | 322 | 4.3 | 6.1 | 0.00 | 0.00 | 0.00 | 54 | 1018.5 |
| 20260507060546 | 58 | 282 | 3.5 | 5.2 | 0.00 | 0.00 | 0.00 | 53 | 1018.4 |
| 20260507060042 | 58 | 310 | 5.2 | 7.8 | 0.00 | 0.00 | 0.00 | 53 | 1018.4 |
| 20260507055537 | 59 | 321 | 5.2 | 9.6 | 0.00 | 0.00 | 0.00 | 52 | 1018.4 |
| 20260507055034 | 59 | 271 | 6.1 | 9.6 | 0.00 | 0.00 | 0.00 | 51 | 1018.3 |
| 20260507054530 | 60 | 315 | 11.3 | 13.9 | 0.00 | 0.00 | 0.00 | 50 | 1018.0 |
| 20260507054027 | 61 | 320 | 6.1 | 11.3 | 0.00 | 0.00 | 0.00 | 48 | 1018.1 |
| 20260507053525 | 61 | 317 | 4.3 | 7.0 | 0.00 | 0.00 | 0.00 | 46 | 1017.8 |
| 20260507053023 | 64 | 303 | 6.1 | 9.6 | 0.00 | 0.00 | 0.00 | 41 | 1017.5 |
| 20260507052521 | 66 | 305 | 8.7 | 11.3 | 0.00 | 0.00 | 0.00 | 29 | 1017.4 |
| 20260507052017 | 67 | 313 | 2.6 | 2.6 | 0.00 | 0.00 | 0.00 | 26 | 1017.1 |
| 20260507051515 | 68 | 217 | 0.0 | 0.0 | 0.00 | 0.00 | 0.00 | 24 | 1016.3 |
| 20260507051012 | 67 | 212 | 0.0 | 0.0 | 0.00 | 0.00 | 0.00 | 25 | 1016.2 |
| 20260507050508 | 67 | 211 | 0.0 | 0.0 | 0.00 | 0.00 | 0.00 | 25 | 1016.2 |
| 20260507050005 | 67 | 211 | 0.0 | 0.0 | 0.00 | 0.00 | 0.00 | 25 | 1016.2 |
| 20260507045501 | 68 | 211 | 0.0 | 0.0 | 0.00 | 0.00 | 0.00 | 25 | 1016.3 |
| 20260507044959 | 68 | 211 | 0.0 | 0.0 | 0.00 | 0.00 | 0.00 | 25 | 1016.1 |
| 20260507044455 | 69 | 211 | 0.0 | 0.0 | 0.00 | 0.00 | 0.00 | 25 | 1016.1 |
| 20260507043951 | 69 | 211 | 0.0 | 0.0 | 0.00 | 0.00 | 0.00 | 25 | 1015.9 |
| 20260507043448 | 70 | 213 | 0.0 | 0.0 | 0.00 | 0.00 | 0.00 | 24 | 1016.0 |
| 20260507042944 | 70 | 212 | 0.0 | 0.0 | 0.00 | 0.00 | 0.00 | 24 | 1016.0 |
| 20260507042441 | 70 | 226 | 0.0 | 0.0 | 0.00 | 0.00 | 0.00 | 23 | 1015.8 |
| 20260507041937 | 70 | 237 | 2.6 | 3.5 | 0.00 | 0.00 | 0.00 | 23 | 1015.7 |
| 20260507041434 | 70 | 222 | 0.0 | 0.0 | 0.00 | 0.00 | 0.00 | 24 | 1015.6 |
| 20260507040931 | 71 | 249 | 0.0 | 0.0 | 0.00 | 0.00 | 0.00 | 23 | 1015.8 |
| 20260507040432 | 70 | 250 | 0.0 | 0.0 | 0.00 | 0.00 | 0.00 | 23 | 1015.5 |
| 20260507035928 | 71 | 226 | 0.0 | 0.0 | 0.00 | 0.00 | 0.00 | 23 | 1015.6 |
| 20260507035424 | 71 | 215 | 0.0 | 0.0 | 0.00 | 0.00 | 0.00 | 24 | 1015.5 |
| 20260507034921 | 71 | 221 | 0.9 | 2.6 | 0.00 | 0.00 | 0.00 | 23 | 1015.7 |
| 20260507034418 | 72 | 220 | 1.7 | 2.6 | 0.00 | 0.00 | 0.00 | 23 | 1015.5 |
| 20260507033916 | 72 | 218 | 0.9 | 2.6 | 0.00 | 0.00 | 0.00 | 22 | 1015.3 |
| 20260507033414 | 73 | 226 | 0.0 | 0.9 | 0.00 | 0.00 | 0.00 | 22 | 1015.3 |
| 20260507032911 | 73 | 245 | 0.9 | 1.7 | 0.00 | 0.00 | 0.00 | 21 | 1015.0 |
| 20260507032408 | 73 | 238 | 0.0 | 1.7 | 0.00 | 0.00 | 0.00 | 21 | 1015.1 |
| 20260507031903 | 74 | 228 | 1.7 | 2.6 | 0.00 | 0.00 | 0.00 | 21 | 1015.0 |
| 20260507031400 | 74 | 241 | 2.6 | 2.6 | 0.00 | 0.00 | 0.00 | 20 | 1015.1 |
| 20260507030857 | 74 | 266 | 3.5 | 5.2 | 0.00 | 0.00 | 0.00 | 20 | 1014.9 |
| 20260507030354 | 74 | 249 | 0.0 | 0.9 | 0.00 | 0.00 | 0.00 | 20 | 1014.9 |
| 20260507025851 | 74 | 259 | 1.7 | 2.6 | 0.00 | 0.00 | 0.00 | 21 | 1014.7 |
| 20260507025349 | 74 | 247 | 0.0 | 0.9 | 0.00 | 0.00 | 0.00 | 21 | 1014.7 |
| 20260507024846 | 74 | 255 | 0.9 | 1.7 | 0.00 | 0.00 | 0.00 | 21 | 1014.6 |
| 20260507024343 | 74 | 231 | 0.0 | 0.0 | 0.00 | 0.00 | 0.00 | 21 | 1014.5 |
| 20260507023839 | 74 | 250 | 2.6 | 5.2 | 0.00 | 0.00 | 0.00 | 20 | 1014.6 |
| 20260507023336 | 75 | 248 | 1.7 | 2.6 | 0.00 | 0.00 | 0.00 | 20 | 1014.4 |
| 20260507022833 | 75 | 220 | 0.0 | 0.0 | 0.00 | 0.00 | 0.00 | 20 | 1014.4 |
| 20260507022330 | 75 | 232 | 2.6 | 3.5 | 0.00 | 0.00 | 0.00 | 20 | 1014.4 |
| 20260507021826 | 75 | 236 | 1.7 | 1.7 | 0.00 | 0.00 | 0.00 | 20 | 1014.4 |
| 20260507021321 | 75 | 236 | 0.0 | 0.9 | 0.00 | 0.00 | 0.00 | 20 | 1014.3 |
| 20260507020819 | 76 | 231 | 0.0 | 0.0 | 0.00 | 0.00 | 0.00 | 20 | 1014.3 |
| 20260507020315 | 76 | 244 | 2.6 | 3.5 | 0.00 | 0.00 | 0.00 | 20 | 1014.3 |
| 20260507015813 | 77 | 245 | 3.5 | 6.1 | 0.00 | 0.00 | 0.00 | 19 | 1014.1 |
| 20260507015311 | 77 | 257 | 2.6 | 3.5 | 0.00 | 0.00 | 0.00 | 19 | 1014.0 |
| 20260507014807 | 77 | 253 | 2.6 | 5.2 | 0.00 | 0.00 | 0.00 | 19 | 1014.0 |
| 20260507014304 | 78 | 248 | 4.3 | 7.0 | 0.00 | 0.00 | 0.00 | 18 | 1013.8 |
| 20260507013800 | 78 | 244 | 4.3 | 6.1 | 0.00 | 0.00 | 0.00 | 18 | 1013.8 |
| 20260507013258 | 78 | 271 | 4.3 | 5.2 | 0.00 | 0.00 | 0.00 | 18 | 1013.7 |
| 20260507012755 | 78 | 222 | 4.3 | 9.6 | 0.00 | 0.00 | 0.00 | 18 | 1013.7 |
| 20260507012250 | 78 | 243 | 4.3 | 7.8 | 0.00 | 0.00 | 0.00 | 18 | 1013.6 |
| 20260507011748 | 79 | 275 | 3.5 | 5.2 | 0.00 | 0.00 | 0.00 | 18 | 1013.6 |
| 20260507011244 | 79 | 255 | 4.3 | 7.0 | 0.00 | 0.00 | 0.00 | 18 | 1013.8 |
| 20260507010744 | 79 | 263 | 6.1 | 8.7 | 0.00 | 0.00 | 0.00 | 18 | 1013.4 |
| 20260507010240 | 80 | 280 | 7.0 | 12.2 | 0.00 | 0.00 | 0.00 | 17 | 1013.5 |
| 20260507005738 | 80 | 280 | 3.5 | 3.5 | 0.00 | 0.00 | 0.00 | 17 | 1013.5 |
| 20260507005234 | 80 | 276 | 0.9 | 1.7 | 0.00 | 0.00 | 0.00 | 17 | 1013.3 |
| 20260507004731 | 80 | 249 | 0.9 | 1.7 | 0.00 | 0.00 | 0.00 | 17 | 1013.2 |
| 20260507004229 | 81 | 255 | 0.9 | 6.1 | 0.00 | 0.00 | 0.00 | 18 | 1013.2 |
| 20260507003725 | 81 | 235 | 2.6 | 5.2 | 0.00 | 0.00 | 0.00 | 17 | 1012.9 |
| 20260507003220 | 81 | 235 | 4.3 | 11.3 | 0.00 | 0.00 | 0.00 | 17 | 1012.8 |
| 20260507002716 | 81 | 259 | 2.6 | 6.1 | 0.00 | 0.00 | 0.00 | 17 | 1012.9 |
| 20260507002212 | 81 | 285 | 5.2 | 7.0 | 0.00 | 0.00 | 0.00 | 17 | 1012.8 |
| 20260507001709 | 81 | 269 | 3.5 | 6.1 | 0.00 | 0.00 | 0.00 | 17 | 1012.8 |
| 20260507001207 | 81 | 253 | 7.8 | 9.6 | 0.00 | 0.00 | 0.00 | 16 | 1012.8 |
| 20260507000703 | 81 | 262 | 4.3 | 5.2 | 0.00 | 0.00 | 0.00 | 16 | 1012.8 |
| 20260507000158 | 81 | 245 | 7.0 | 8.7 | 0.00 | 0.00 | 0.00 | 16 | 1012.8 |
| 20260506235656 | 81 | 290 | 1.7 | 3.5 | 0.00 | 0.00 | 0.00 | 17 | 1012.7 |
| 20260506235151 | 82 | 276 | 1.7 | 5.2 | 0.00 | 0.00 | 0.00 | 17 | 1012.5 |
| 20260506234648 | 82 | 224 | 3.5 | 5.2 | 0.00 | 0.00 | 0.00 | 18 | 1012.5 |
| 20260506234145 | 82 | 217 | 3.5 | 6.1 | 0.00 | 0.00 | 0.00 | 17 | 1012.7 |
| 20260506233642 | 82 | 261 | 7.8 | 13.9 | 0.00 | 0.00 | 0.00 | 17 | 1012.6 |
| 20260506233139 | 82 | 262 | 6.1 | 8.7 | 0.00 | 0.00 | 0.00 | 17 | 1012.5 |
| 20260506232635 | 82 | 270 | 2.6 | 8.7 | 0.00 | 0.00 | 0.00 | 17 | 1012.3 |
| 20260506232131 | 81 | 248 | 6.1 | 11.3 | 0.00 | 0.00 | 0.00 | 18 | 1012.4 |
| 20260506231628 | 82 | 236 | 4.3 | 8.7 | 0.00 | 0.00 | 0.00 | 17 | 1012.5 |
| 20260506231127 | 82 | 254 | 4.3 | 9.6 | 0.00 | 0.00 | 0.00 | 18 | 1012.3 |
| 20260506230623 | 82 | 248 | 4.3 | 7.8 | 0.00 | 0.00 | 0.00 | 17 | 1012.5 |
| 20260506230120 | 82 | 251 | 1.7 | 3.5 | 0.00 | 0.00 | 0.00 | 18 | 1012.5 |
| 20260506225617 | 82 | 236 | 5.2 | 8.7 | 0.00 | 0.00 | 0.00 | 18 | 1012.3 |
| 20260506225113 | 82 | 261 | 6.1 | 11.3 | 0.00 | 0.00 | 0.00 | 17 | 1012.3 |
| 20260506224610 | 82 | 294 | 3.5 | 5.2 | 0.00 | 0.00 | 0.00 | 18 | 1012.4 |
| 20260506224106 | 82 | 276 | 3.5 | 5.2 | 0.00 | 0.00 | 0.00 | 18 | 1012.3 |
| 20260506223602 | 82 | 292 | 3.5 | 7.0 | 0.00 | 0.00 | 0.00 | 18 | 1012.5 |
| 20260506223059 | 81 | 280 | 12.2 | 15.6 | 0.00 | 0.00 | 0.00 | 17 | 1012.2 |
| 20260506222556 | 82 | 252 | 0.0 | 0.9 | 0.00 | 0.00 | 0.00 | 18 | 1012.3 |
| 20260506222052 | 82 | 267 | 7.0 | 11.3 | 0.00 | 0.00 | 0.00 | 17 | 1012.3 |
| 20260506221550 | 82 | 246 | 4.3 | 7.0 | 0.00 | 0.00 | 0.00 | 17 | 1012.4 |
| 20260506221048 | 82 | 239 | 5.2 | 8.7 | 0.00 | 0.00 | 0.00 | 18 | 1012.3 |
| 20260506220543 | 82 | 237 | 2.6 | 6.1 | 0.00 | 0.00 | 0.00 | 18 | 1012.5 |
| 20260506220039 | 82 | 259 | 7.0 | 9.6 | 0.00 | 0.00 | 0.00 | 17 | 1012.5 |
| 20260506215536 | 81 | 303 | 7.8 | 12.2 | 0.00 | 0.00 | 0.00 | 17 | 1012.4 |
| 20260506215032 | 82 | 222 | 3.5 | 6.1 | 0.00 | 0.00 | 0.00 | 18 | 1012.6 |
| 20260506214529 | 81 | 268 | 8.7 | 12.2 | 0.00 | 0.00 | 0.00 | 17 | 1012.6 |
| 20260506214026 | 81 | 259 | 9.6 | 13.0 | 0.00 | 0.00 | 0.00 | 16 | 1012.5 |
| 20260506213524 | 81 | 248 | 13.9 | 19.1 | 0.00 | 0.00 | 0.00 | 17 | 1012.5 |
| 20260506213021 | 82 | 220 | 4.3 | 7.8 | 0.00 | 0.00 | 0.00 | 18 | 1012.6 |
| 20260506212518 | 82 | 233 | 5.2 | 11.3 | 0.00 | 0.00 | 0.00 | 16 | 1012.6 |
| 20260506212013 | 81 | 219 | 7.0 | 8.7 | 0.00 | 0.00 | 0.00 | 16 | 1012.5 |
| 20260506211509 | 82 | 307 | 1.7 | 5.2 | 0.00 | 0.00 | 0.00 | 17 | 1012.7 |
| 20260506211006 | 81 | 232 | 7.0 | 9.6 | 0.00 | 0.00 | 0.00 | 16 | 1012.8 |
| 20260506210502 | 81 | 256 | 6.1 | 9.6 | 0.00 | 0.00 | 0.00 | 16 | 1012.8 |
| 20260506205959 | 81 | 209 | 6.1 | 8.7 | 0.00 | 0.00 | 0.00 | 16 | 1012.8 |
| 20260506205456 | 81 | 251 | 7.0 | 8.7 | 0.00 | 0.00 | 0.00 | 16 | 1012.9 |
| 20260506204952 | 81 | 236 | 10.4 | 13.0 | 0.00 | 0.00 | 0.00 | 15 | 1012.9 |
| 20260506204450 | 81 | 267 | 7.8 | 13.0 | 0.00 | 0.00 | 0.00 | 16 | 1013.0 |
| 20260506203947 | 80 | 228 | 7.0 | 11.3 | 0.00 | 0.00 | 0.00 | 17 | 1013.3 |
| 20260506203444 | 80 | 230 | 7.0 | 11.3 | 0.00 | 0.00 | 0.00 | 17 | 1012.8 |
| 20260506202941 | 80 | 204 | 7.8 | 9.6 | 0.00 | 0.00 | 0.00 | 16 | 1012.9 |
| 20260506202438 | 82 | 282 | 10.4 | 15.6 | 0.00 | 0.00 | 0.00 | 16 | 1013.0 |
| 20260506201934 | 81 | 265 | 5.2 | 7.0 | 0.00 | 0.00 | 0.00 | 16 | 1013.3 |
| 20260506201432 | 80 | 286 | 7.0 | 7.8 | 0.00 | 0.00 | 0.00 | 15 | 1013.2 |
| 20260506200928 | 81 | 209 | 7.8 | 11.3 | 0.00 | 0.00 | 0.00 | 16 | 1013.2 |
| 20260506200425 | 80 | 246 | 7.0 | 11.3 | 0.00 | 0.00 | 0.00 | 16 | 1013.3 |
| 20260506195916 | 80 | 254 | 7.0 | 8.7 | 0.00 | 0.00 | 0.00 | 17 | 1013.4 |
| 20260506195413 | 80 | 259 | 7.8 | 13.0 | 0.00 | 0.00 | 0.00 | 16 | 1013.6 |
| 20260506194910 | 80 | 221 | 7.8 | 13.0 | 0.00 | 0.00 | 0.00 | 16 | 1013.5 |
| 20260506194407 | 80 | 239 | 2.6 | 5.2 | 0.00 | 0.00 | 0.00 | 18 | 1013.5 |
| 20260506193904 | 81 | 222 | 5.2 | 8.7 | 0.00 | 0.00 | 0.00 | 18 | 1013.5 |
| 20260506193401 | 80 | 239 | 7.8 | 9.6 | 0.00 | 0.00 | 0.00 | 18 | 1013.7 |
| 20260506192857 | 80 | 263 | 6.1 | 11.3 | 0.00 | 0.00 | 0.00 | 19 | 1013.6 |
| 20260506192354 | 80 | 243 | 8.7 | 13.0 | 0.00 | 0.00 | 0.00 | 19 | 1013.6 |
| 20260506191851 | 80 | 246 | 6.1 | 13.9 | 0.00 | 0.00 | 0.00 | 19 | 1013.7 |
| 20260506191347 | 79 | 212 | 1.7 | 2.6 | 0.00 | 0.00 | 0.00 | 20 | 1013.7 |
| 20260506190844 | 80 | 273 | 13.0 | 18.2 | 0.00 | 0.00 | 0.00 | 19 | 1013.9 |
| 20260506190340 | 80 | 241 | 2.6 | 6.1 | 0.00 | 0.00 | 0.00 | 20 | 1014.0 |
| 20260506185837 | 79 | 241 | 4.3 | 7.0 | 0.00 | 0.00 | 0.00 | 20 | 1013.8 |
| 20260506185334 | 79 | 228 | 1.7 | 3.5 | 0.00 | 0.00 | 0.00 | 22 | 1014.0 |
| 20260506184831 | 79 | 238 | 3.5 | 7.0 | 0.00 | 0.00 | 0.00 | 21 | 1014.0 |
| 20260506184328 | 79 | 220 | 10.4 | 13.9 | 0.00 | 0.00 | 0.00 | 21 | 1014.1 |
| 20260506183826 | 78 | 310 | 7.0 | 12.2 | 0.00 | 0.00 | 0.00 | 21 | 1014.0 |
| 20260506183320 | 78 | 248 | 8.7 | 9.6 | 0.00 | 0.00 | 0.00 | 20 | 1014.3 |
| 20260506182818 | 78 | 196 | 3.5 | 5.2 | 0.00 | 0.00 | 0.00 | 21 | 1014.3 |
| 20260506182315 | 78 | 253 | 3.5 | 8.7 | 0.00 | 0.00 | 0.00 | 21 | 1014.5 |
| 20260506181813 | 78 | 239 | 3.5 | 7.8 | 0.00 | 0.00 | 0.00 | 21 | 1014.5 |
| 20260506181310 | 77 | 270 | 6.1 | 7.8 | 0.00 | 0.00 | 0.00 | 22 | 1014.7 |
| 20260506180807 | 77 | 271 | 1.7 | 3.5 | 0.00 | 0.00 | 0.00 | 23 | 1014.7 |